Maitland, Missouri
Current Conditions -  °F | °C
As of 8:53 AM on Friday 31 Oct 2014 (Local Time) from KFNB Reporting Station
Clear Clear  
Wind Chill: 23°   Ceiling: Unl
Heat Index: 32°   Visibility: 10mi
Dew Point: 20°   Wind: 12mph
Humidity: 61%   Direction: 350°N
Pressure: 30.53"   Gusts: NA
Location:  40.2°N, 95.07°W
Report Text: KFNB 311353Z AUTO 35010KT 10SM CLR 00/M07 A3053 RMK AO2 SLP345 T00001067
Loading
Personal Weather Stations






























Interactive Weather Map
Tropical Storm Tracking
New forecast layout! Learn more

10-Day Weather Forecast

Advertisements
Track Severe Weather on mobile